Terminal Aerodrome Forecast
Issued by NWS

Home | Current Version | Previous Version | Text Only | Print | Product List | Glossary On
Versions: 1 2 3 4 5 6 7 8 9 10 11 12 13 14 15 16 17 18
000
FTUS44 KCRP 231720
TAFALI
TAF
KALI 231720Z 2318/2418 16012KT 6SM BR SCT015 OVC025
      TEMPO 2320/2323 SCT025
     FM240300 16008KT 4SM BR OVC007
     FM240900 16008KT 2SM BR OVC004
     FM241600 17015G20KT P6SM BKN015=

USA.gov is the U.S. government's official web portal to all federal, state and local government web resources and services.